sensor_id;sensor_type;location;lat;lon;timestamp;temperature;humidity
52459;DHT22;38372;52.902;6.024;2022-08-23T00:01:15;16.70;99.90
52459;DHT22;38372;52.902;6.024;2022-08-23T00:03:41;16.60;99.90
52459;DHT22;38372;52.902;6.024;2022-08-23T00:06:08;16.60;99.90
52459;DHT22;38372;52.902;6.024;2022-08-23T00:08:36;16.60;99.90
52459;DHT22;38372;52.902;6.024;2022-08-23T00:11:02;16.60;99.90
52459;DHT22;38372;52.902;6.024;2022-08-23T00:13:28;16.60;99.90
52459;DHT22;38372;52.902;6.024;2022-08-23T00:15:54;16.60;99.90
52459;DHT22;38372;52.902;6.024;2022-08-23T00:18:20;16.50;99.90
52459;DHT22;38372;52.902;6.024;2022-08-23T00:20:47;16.50;99.90
52459;DHT22;38372;52.902;6.024;2022-08-23T00:23:13;16.50;99.90
52459;DHT22;38372;52.902;6.024;2022-08-23T00:25:39;16.40;99.90
52459;DHT22;38372;52.902;6.024;2022-08-23T00:28:05;16.40;99.90
52459;DHT22;38372;52.902;6.024;2022-08-23T00:30:31;16.30;99.90
52459;DHT22;38372;52.902;6.024;2022-08-23T00:32:57;16.30;99.90
52459;DHT22;38372;52.902;6.024;2022-08-23T00:35:23;16.20;99.90
52459;DHT22;38372;52.902;6.024;2022-08-23T00:37:49;16.10;99.90
52459;DHT22;38372;52.902;6.024;2022-08-23T00:40:16;16.10;99.90
52459;DHT22;38372;52.902;6.024;2022-08-23T00:42:55;16.00;99.90
52459;DHT22;38372;52.902;6.024;2022-08-23T00:46:36;16.00;99.90
52459;DHT22;38372;52.902;6.024;2022-08-23T00:48:55;16.00;99.90
52459;DHT22;38372;52.902;6.024;2022-08-23T00:51:37;16.00;99.90
52459;DHT22;38372;52.902;6.024;2022-08-23T00:54:08;16.00;99.90
52459;DHT22;38372;52.902;6.024;2022-08-23T00:56:35;16.00;99.90
52459;DHT22;38372;52.902;6.024;2022-08-23T00:59:04;16.00;99.90
52459;DHT22;38372;52.902;6.024;2022-08-23T01:01:30;16.10;99.90
52459;DHT22;38372;52.902;6.024;2022-08-23T01:03:57;16.00;99.90
52459;DHT22;38372;52.902;6.024;2022-08-23T01:06:26;15.90;99.90
52459;DHT22;38372;52.902;6.024;2022-08-23T01:08:59;15.90;99.90
52459;DHT22;38372;52.902;6.024;2022-08-23T01:11:36;15.90;99.90
52459;DHT22;38372;52.902;6.024;2022-08-23T01:16:53;15.90;99.90
52459;DHT22;38372;52.902;6.024;2022-08-23T01:19:34;15.90;99.90
52459;DHT22;38372;52.902;6.024;2022-08-23T01:24:39;15.80;99.90
52459;DHT22;38372;52.902;6.024;2022-08-23T01:27:06;15.80;99.90
52459;DHT22;38372;52.902;6.024;2022-08-23T01:29:33;15.70;99.90
52459;DHT22;38372;52.902;6.024;2022-08-23T01:31:59;15.60;99.90
52459;DHT22;38372;52.902;6.024;2022-08-23T01:34:27;15.50;99.90
52459;DHT22;38372;52.902;6.024;2022-08-23T01:36:54;15.50;99.90
52459;DHT22;38372;52.902;6.024;2022-08-23T01:39:21;15.40;99.90
52459;DHT22;38372;52.902;6.024;2022-08-23T01:41:47;15.40;99.90
52459;DHT22;38372;52.902;6.024;2022-08-23T01:44:13;15.40;99.90
52459;DHT22;38372;52.902;6.024;2022-08-23T01:46:43;15.30;99.90
52459;DHT22;38372;52.902;6.024;2022-08-23T01:49:09;15.40;99.90
52459;DHT22;38372;52.902;6.024;2022-08-23T01:51:35;15.40;99.90
52459;DHT22;38372;52.902;6.024;2022-08-23T01:54:02;15.40;99.90
52459;DHT22;38372;52.902;6.024;2022-08-23T01:56:29;15.40;99.90
52459;DHT22;38372;52.902;6.024;2022-08-23T01:58:55;15.40;99.90
52459;DHT22;38372;52.902;6.024;2022-08-23T02:01:21;15.40;99.90
52459;DHT22;38372;52.902;6.024;2022-08-23T02:03:47;15.40;99.90
52459;DHT22;38372;52.902;6.024;2022-08-23T02:06:13;15.40;99.90
52459;DHT22;38372;52.902;6.024;2022-08-23T02:08:38;15.40;99.90
52459;DHT22;38372;52.902;6.024;2022-08-23T02:11:24;15.40;99.90
52459;DHT22;38372;52.902;6.024;2022-08-23T02:13:52;15.50;99.90
52459;DHT22;38372;52.902;6.024;2022-08-23T02:16:27;15.50;99.90
52459;DHT22;38372;52.902;6.024;2022-08-23T02:18:53;15.50;99.90
52459;DHT22;38372;52.902;6.024;2022-08-23T02:21:19;15.50;99.90
52459;DHT22;38372;52.902;6.024;2022-08-23T02:23:47;15.50;99.90
52459;DHT22;38372;52.902;6.024;2022-08-23T02:26:13;15.40;99.90
52459;DHT22;38372;52.902;6.024;2022-08-23T02:28:39;15.40;99.90
52459;DHT22;38372;52.902;6.024;2022-08-23T02:31:06;15.40;99.90
52459;DHT22;38372;52.902;6.024;2022-08-23T02:33:32;15.30;99.90
52459;DHT22;38372;52.902;6.024;2022-08-23T02:35:58;15.20;99.90
52459;DHT22;38372;52.902;6.024;2022-08-23T02:38:23;15.10;99.90
52459;DHT22;38372;52.902;6.024;2022-08-23T02:40:49;15.00;99.90
52459;DHT22;38372;52.902;6.024;2022-08-23T02:43:15;15.00;99.90
52459;DHT22;38372;52.902;6.024;2022-08-23T02:45:41;15.00;99.90
52459;DHT22;38372;52.902;6.024;2022-08-23T02:48:08;14.90;99.90
52459;DHT22;38372;52.902;6.024;2022-08-23T02:50:34;14.90;99.90
52459;DHT22;38372;52.902;6.024;2022-08-23T02:53:01;14.80;99.90
52459;DHT22;38372;52.902;6.024;2022-08-23T02:55:27;14.80;99.90
52459;DHT22;38372;52.902;6.024;2022-08-23T02:57:54;14.70;99.90
52459;DHT22;38372;52.902;6.024;2022-08-23T03:00:20;14.70;99.90
52459;DHT22;38372;52.902;6.024;2022-08-23T03:02:46;14.70;99.90
52459;DHT22;38372;52.902;6.024;2022-08-23T03:05:13;14.70;99.90
52459;DHT22;38372;52.902;6.024;2022-08-23T03:07:39;14.70;99.90
52459;DHT22;38372;52.902;6.024;2022-08-23T03:10:06;14.80;99.90
52459;DHT22;38372;52.902;6.024;2022-08-23T03:12:33;14.80;99.90
52459;DHT22;38372;52.902;6.024;2022-08-23T03:14:59;14.90;99.90
52459;DHT22;38372;52.902;6.024;2022-08-23T03:17:25;14.90;99.90
52459;DHT22;38372;52.902;6.024;2022-08-23T03:19:51;14.90;99.90
52459;DHT22;38372;52.902;6.024;2022-08-23T03:22:18;14.90;99.90
52459;DHT22;38372;52.902;6.024;2022-08-23T03:24:44;14.90;99.90
52459;DHT22;38372;52.902;6.024;2022-08-23T03:27:10;14.90;99.90
52459;DHT22;38372;52.902;6.024;2022-08-23T03:29:36;14.90;99.90
52459;DHT22;38372;52.902;6.024;2022-08-23T03:32:04;14.90;99.90
52459;DHT22;38372;52.902;6.024;2022-08-23T03:34:30;14.90;99.90
52459;DHT22;38372;52.902;6.024;2022-08-23T03:36:56;14.80;99.90
52459;DHT22;38372;52.902;6.024;2022-08-23T03:39:23;14.80;99.90
52459;DHT22;38372;52.902;6.024;2022-08-23T03:41:49;14.80;99.90
52459;DHT22;38372;52.902;6.024;2022-08-23T03:44:15;14.80;99.90
52459;DHT22;38372;52.902;6.024;2022-08-23T03:46:41;14.80;99.90
52459;DHT22;38372;52.902;6.024;2022-08-23T03:49:07;14.80;99.90
52459;DHT22;38372;52.902;6.024;2022-08-23T03:51:33;14.80;99.90
52459;DHT22;38372;52.902;6.024;2022-08-23T03:53:59;14.70;99.90
52459;DHT22;38372;52.902;6.024;2022-08-23T03:56:31;14.60;99.90
52459;DHT22;38372;52.902;6.024;2022-08-23T03:59:02;14.50;99.90
52459;DHT22;38372;52.902;6.024;2022-08-23T04:01:28;14.40;99.90
52459;DHT22;38372;52.902;6.024;2022-08-23T04:03:55;14.30;99.90
52459;DHT22;38372;52.902;6.024;2022-08-23T04:06:24;14.30;99.90
52459;DHT22;38372;52.902;6.024;2022-08-23T04:08:51;14.30;99.90
52459;DHT22;38372;52.902;6.024;2022-08-23T04:11:20;14.30;99.90
52459;DHT22;38372;52.902;6.024;2022-08-23T04:13:46;14.20;99.90
52459;DHT22;38372;52.902;6.024;2022-08-23T04:16:12;14.20;99.90
52459;DHT22;38372;52.902;6.024;2022-08-23T04:18:39;14.20;99.90
52459;DHT22;38372;52.902;6.024;2022-08-23T04:21:09;14.30;99.90
52459;DHT22;38372;52.902;6.024;2022-08-23T04:23:38;14.30;99.90
52459;DHT22;38372;52.902;6.024;2022-08-23T04:26:05;14.40;99.90
52459;DHT22;38372;52.902;6.024;2022-08-23T04:28:32;14.40;99.90
52459;DHT22;38372;52.902;6.024;2022-08-23T04:30:58;14.50;99.90
52459;DHT22;38372;52.902;6.024;2022-08-23T04:33:28;14.50;99.90
52459;DHT22;38372;52.902;6.024;2022-08-23T04:35:58;14.50;99.90
52459;DHT22;38372;52.902;6.024;2022-08-23T04:38:25;14.50;99.90
52459;DHT22;38372;52.902;6.024;2022-08-23T04:40:51;14.50;99.90
52459;DHT22;38372;52.902;6.024;2022-08-23T04:43:36;14.50;99.90
52459;DHT22;38372;52.902;6.024;2022-08-23T04:46:02;14.50;99.90
52459;DHT22;38372;52.902;6.024;2022-08-23T04:48:27;14.40;99.90
52459;DHT22;38372;52.902;6.024;2022-08-23T04:50:53;14.40;99.90
52459;DHT22;38372;52.902;6.024;2022-08-23T04:53:19;14.50;99.90
52459;DHT22;38372;52.902;6.024;2022-08-23T04:55:45;14.50;99.90
52459;DHT22;38372;52.902;6.024;2022-08-23T04:58:11;14.50;99.90
52459;DHT22;38372;52.902;6.024;2022-08-23T05:00:37;14.60;99.90
52459;DHT22;38372;52.902;6.024;2022-08-23T05:03:04;14.60;99.90
52459;DHT22;38372;52.902;6.024;2022-08-23T05:05:29;14.70;99.90
52459;DHT22;38372;52.902;6.024;2022-08-23T05:07:55;14.70;99.90
52459;DHT22;38372;52.902;6.024;2022-08-23T05:10:21;14.70;99.90
52459;DHT22;38372;52.902;6.024;2022-08-23T05:12:47;14.80;99.90
52459;DHT22;38372;52.902;6.024;2022-08-23T05:15:13;14.90;99.90
52459;DHT22;38372;52.902;6.024;2022-08-23T05:17:39;15.00;99.90
52459;DHT22;38372;52.902;6.024;2022-08-23T05:20:07;15.10;99.90
52459;DHT22;38372;52.902;6.024;2022-08-23T05:22:34;15.10;99.90
52459;DHT22;38372;52.902;6.024;2022-08-23T05:25:00;15.20;99.90
52459;DHT22;38372;52.902;6.024;2022-08-23T05:27:25;15.40;99.90
52459;DHT22;38372;52.902;6.024;2022-08-23T05:29:51;15.50;99.90
52459;DHT22;38372;52.902;6.024;2022-08-23T05:32:21;15.60;99.90
52459;DHT22;38372;52.902;6.024;2022-08-23T05:34:47;15.70;99.90
52459;DHT22;38372;52.902;6.024;2022-08-23T05:37:14;15.80;99.90
52459;DHT22;38372;52.902;6.024;2022-08-23T05:39:41;15.90;99.90
52459;DHT22;38372;52.902;6.024;2022-08-23T05:42:10;16.10;99.90
52459;DHT22;38372;52.902;6.024;2022-08-23T05:44:36;16.10;99.90
52459;DHT22;38372;52.902;6.024;2022-08-23T05:47:07;16.20;99.90
52459;DHT22;38372;52.902;6.024;2022-08-23T05:49:34;16.30;99.90
52459;DHT22;38372;52.902;6.024;2022-08-23T05:52:03;16.40;99.90
52459;DHT22;38372;52.902;6.024;2022-08-23T05:54:30;16.50;99.90
52459;DHT22;38372;52.902;6.024;2022-08-23T05:56:55;16.50;99.90
52459;DHT22;38372;52.902;6.024;2022-08-23T05:59:21;16.60;99.90
52459;DHT22;38372;52.902;6.024;2022-08-23T06:01:47;16.70;99.90
52459;DHT22;38372;52.902;6.024;2022-08-23T06:04:13;16.70;99.90
52459;DHT22;38372;52.902;6.024;2022-08-23T06:06:41;16.80;99.90
52459;DHT22;38372;52.902;6.024;2022-08-23T06:09:11;16.90;99.90
52459;DHT22;38372;52.902;6.024;2022-08-23T06:11:37;17.00;99.90
52459;DHT22;38372;52.902;6.024;2022-08-23T06:14:06;17.20;99.90
52459;DHT22;38372;52.902;6.024;2022-08-23T06:16:40;17.40;99.90
52459;DHT22;38372;52.902;6.024;2022-08-23T06:19:07;17.70;99.90
52459;DHT22;38372;52.902;6.024;2022-08-23T06:21:34;18.00;99.90
52459;DHT22;38372;52.902;6.024;2022-08-23T06:24:01;18.40;99.90
52459;DHT22;38372;52.902;6.024;2022-08-23T06:26:30;18.70;99.90
52459;DHT22;38372;52.902;6.024;2022-08-23T06:28:59;18.90;99.90
52459;DHT22;38372;52.902;6.024;2022-08-23T06:31:27;19.20;99.90
52459;DHT22;38372;52.902;6.024;2022-08-23T06:36:43;19.60;99.90
52459;DHT22;38372;52.902;6.024;2022-08-23T06:39:10;19.90;99.90
52459;DHT22;38372;52.902;6.024;2022-08-23T06:41:36;20.00;99.90
52459;DHT22;38372;52.902;6.024;2022-08-23T06:44:02;20.00;99.90
52459;DHT22;38372;52.902;6.024;2022-08-23T06:46:29;19.90;99.90
52459;DHT22;38372;52.902;6.024;2022-08-23T06:48:56;19.80;99.90
52459;DHT22;38372;52.902;6.024;2022-08-23T06:53:51;20.10;99.90
52459;DHT22;38372;52.902;6.024;2022-08-23T06:56:20;20.30;99.90
52459;DHT22;38372;52.902;6.024;2022-08-23T06:58:46;20.50;99.90
52459;DHT22;38372;52.902;6.024;2022-08-23T07:03:59;20.60;99.90
52459;DHT22;38372;52.902;6.024;2022-08-23T07:06:26;20.90;99.90
52459;DHT22;38372;52.902;6.024;2022-08-23T07:08:53;21.00;99.90
52459;DHT22;38372;52.902;6.024;2022-08-23T07:11:20;21.00;99.90
52459;DHT22;38372;52.902;6.024;2022-08-23T07:13:46;20.90;99.90
52459;DHT22;38372;52.902;6.024;2022-08-23T07:16:13;20.80;99.90
52459;DHT22;38372;52.902;6.024;2022-08-23T07:18:42;20.70;99.90
52459;DHT22;38372;52.902;6.024;2022-08-23T07:21:08;20.50;99.90
52459;DHT22;38372;52.902;6.024;2022-08-23T07:23:34;20.50;99.90
52459;DHT22;38372;52.902;6.024;2022-08-23T07:26:01;20.50;99.90
52459;DHT22;38372;52.902;6.024;2022-08-23T07:28:28;20.60;99.90
52459;DHT22;38372;52.902;6.024;2022-08-23T07:30:59;20.80;99.90
52459;DHT22;38372;52.902;6.024;2022-08-23T07:33:30;21.00;99.90
52459;DHT22;38372;52.902;6.024;2022-08-23T07:35:56;21.10;99.90
52459;DHT22;38372;52.902;6.024;2022-08-23T07:38:22;21.20;99.90
52459;DHT22;38372;52.902;6.024;2022-08-23T07:40:47;21.30;99.90
52459;DHT22;38372;52.902;6.024;2022-08-23T07:43:13;21.50;99.90
52459;DHT22;38372;52.902;6.024;2022-08-23T07:45:39;21.50;99.90
52459;DHT22;38372;52.902;6.024;2022-08-23T07:48:07;21.60;99.90
52459;DHT22;38372;52.902;6.024;2022-08-23T07:50:32;21.60;99.90
52459;DHT22;38372;52.902;6.024;2022-08-23T07:52:58;21.70;99.90
52459;DHT22;38372;52.902;6.024;2022-08-23T07:55:27;21.80;99.90
52459;DHT22;38372;52.902;6.024;2022-08-23T07:57:53;22.10;99.90
52459;DHT22;38372;52.902;6.024;2022-08-23T08:00:19;22.30;99.90
52459;DHT22;38372;52.902;6.024;2022-08-23T08:02:44;22.40;99.90
52459;DHT22;38372;52.902;6.024;2022-08-23T08:05:10;22.70;99.90
52459;DHT22;38372;52.902;6.024;2022-08-23T08:07:36;23.00;99.90
52459;DHT22;38372;52.902;6.024;2022-08-23T08:10:03;23.20;99.90
52459;DHT22;38372;52.902;6.024;2022-08-23T08:12:29;23.20;99.90
52459;DHT22;38372;52.902;6.024;2022-08-23T08:14:57;23.00;99.90
52459;DHT22;38372;52.902;6.024;2022-08-23T08:17:23;22.80;99.90
52459;DHT22;38372;52.902;6.024;2022-08-23T08:19:49;22.70;99.90
52459;DHT22;38372;52.902;6.024;2022-08-23T08:22:14;22.70;99.90
52459;DHT22;38372;52.902;6.024;2022-08-23T08:24:40;22.60;99.90
52459;DHT22;38372;52.902;6.024;2022-08-23T08:27:06;22.60;99.90
52459;DHT22;38372;52.902;6.024;2022-08-23T08:29:33;22.60;99.90
52459;DHT22;38372;52.902;6.024;2022-08-23T08:31:59;22.60;99.90
52459;DHT22;38372;52.902;6.024;2022-08-23T08:34:25;22.50;99.90
52459;DHT22;38372;52.902;6.024;2022-08-23T08:36:56;22.50;99.90
52459;DHT22;38372;52.902;6.024;2022-08-23T08:39:28;22.50;99.90
52459;DHT22;38372;52.902;6.024;2022-08-23T08:44:59;22.60;99.90
52459;DHT22;38372;52.902;6.024;2022-08-23T08:50:25;22.80;99.90
52459;DHT22;38372;52.902;6.024;2022-08-23T08:55:35;23.10;99.90
52459;DHT22;38372;52.902;6.024;2022-08-23T08:58:05;23.30;99.90
52459;DHT22;38372;52.902;6.024;2022-08-23T09:00:36;23.50;99.90
52459;DHT22;38372;52.902;6.024;2022-08-23T09:03:11;23.70;99.90
52459;DHT22;38372;52.902;6.024;2022-08-23T09:05:53;23.80;99.90
52459;DHT22;38372;52.902;6.024;2022-08-23T09:08:44;24.00;99.90
52459;DHT22;38372;52.902;6.024;2022-08-23T09:16:59;24.90;99.90
52459;DHT22;38372;52.902;6.024;2022-08-23T09:19:26;25.20;99.90
52459;DHT22;38372;52.902;6.024;2022-08-23T09:24:19;25.90;99.90
52459;DHT22;38372;52.902;6.024;2022-08-23T09:26:45;26.30;99.90
52459;DHT22;38372;52.902;6.024;2022-08-23T09:29:28;26.30;99.90
52459;DHT22;38372;52.902;6.024;2022-08-23T09:31:59;26.20;99.60
52459;DHT22;38372;52.902;6.024;2022-08-23T09:39:35;27.20;99.30
52459;DHT22;38372;52.902;6.024;2022-08-23T09:42:02;27.50;98.50
52459;DHT22;38372;52.902;6.024;2022-08-23T09:44:38;27.80;97.50
52459;DHT22;38372;52.902;6.024;2022-08-23T09:47:13;28.00;96.90
52459;DHT22;38372;52.902;6.024;2022-08-23T09:49:41;28.00;94.00
52459;DHT22;38372;52.902;6.024;2022-08-23T09:52:32;27.90;96.40
52459;DHT22;38372;52.902;6.024;2022-08-23T09:55:10;28.00;96.40
52459;DHT22;38372;52.902;6.024;2022-08-23T09:57:37;28.20;95.00
52459;DHT22;38372;52.902;6.024;2022-08-23T10:02:42;28.80;93.60
52459;DHT22;38372;52.902;6.024;2022-08-23T10:07:52;29.30;92.50
52459;DHT22;38372;52.902;6.024;2022-08-23T10:10:31;29.50;91.40
52459;DHT22;38372;52.902;6.024;2022-08-23T10:13:00;29.80;90.10
52459;DHT22;38372;52.902;6.024;2022-08-23T10:18:41;30.20;85.40
52459;DHT22;38372;52.902;6.024;2022-08-23T10:21:41;30.40;84.50
52459;DHT22;38372;52.902;6.024;2022-08-23T10:30:17;30.70;75.20
52459;DHT22;38372;52.902;6.024;2022-08-23T10:33:10;30.70;74.70
52459;DHT22;38372;52.902;6.024;2022-08-23T10:46:46;31.40;68.50
52459;DHT22;38372;52.902;6.024;2022-08-23T10:49:13;31.30;67.40
52459;DHT22;38372;52.902;6.024;2022-08-23T10:51:43;31.10;66.90
52459;DHT22;38372;52.902;6.024;2022-08-23T10:54:29;30.90;64.60
52459;DHT22;38372;52.902;6.024;2022-08-23T10:57:03;31.00;64.80
52459;DHT22;38372;52.902;6.024;2022-08-23T10:59:31;31.20;62.40
52459;DHT22;38372;52.902;6.024;2022-08-23T11:07:27;30.60;63.40
52459;DHT22;38372;52.902;6.024;2022-08-23T11:15:44;30.80;65.50
52459;DHT22;38372;52.902;6.024;2022-08-23T11:23:49;31.20;64.00
52459;DHT22;38372;52.902;6.024;2022-08-23T11:28:51;31.60;63.70
52459;DHT22;38372;52.902;6.024;2022-08-23T11:31:30;31.60;62.30
52459;DHT22;38372;52.902;6.024;2022-08-23T11:34:07;31.60;60.50
52459;DHT22;38372;52.902;6.024;2022-08-23T11:36:36;31.50;62.80
52459;DHT22;38372;52.902;6.024;2022-08-23T11:39:08;31.60;63.20
52459;DHT22;38372;52.902;6.024;2022-08-23T11:41:58;31.70;63.40
52459;DHT22;38372;52.902;6.024;2022-08-23T11:44:25;31.80;61.50
52459;DHT22;38372;52.902;6.024;2022-08-23T12:03:15;31.80;60.80
52459;DHT22;38372;52.902;6.024;2022-08-23T12:10:57;31.20;58.20
52459;DHT22;38372;52.902;6.024;2022-08-23T12:13:29;31.00;58.50
52459;DHT22;38372;52.902;6.024;2022-08-23T12:24:23;31.20;60.20
52459;DHT22;38372;52.902;6.024;2022-08-23T12:34:58;31.40;59.20
52459;DHT22;38372;52.902;6.024;2022-08-23T12:37:29;31.20;60.50
52459;DHT22;38372;52.902;6.024;2022-08-23T12:40:00;31.20;59.40
52459;DHT22;38372;52.902;6.024;2022-08-23T12:42:34;31.00;58.60
52459;DHT22;38372;52.902;6.024;2022-08-23T12:45:02;30.60;57.90
52459;DHT22;38372;52.902;6.024;2022-08-23T12:47:28;30.40;60.50
52459;DHT22;38372;52.902;6.024;2022-08-23T12:50:15;30.30;60.60
52459;DHT22;38372;52.902;6.024;2022-08-23T12:52:53;30.30;59.70
52459;DHT22;38372;52.902;6.024;2022-08-23T12:55:19;30.50;60.10
52459;DHT22;38372;52.902;6.024;2022-08-23T12:57:51;30.50;58.40
52459;DHT22;38372;52.902;6.024;2022-08-23T13:00:34;30.50;58.20
52459;DHT22;38372;52.902;6.024;2022-08-23T13:03:17;30.50;57.90
52459;DHT22;38372;52.902;6.024;2022-08-23T13:05:54;30.40;56.90
52459;DHT22;38372;52.902;6.024;2022-08-23T13:12:03;30.30;58.30
52459;DHT22;38372;52.902;6.024;2022-08-23T13:16:57;30.30;60.40
52459;DHT22;38372;52.902;6.024;2022-08-23T13:19:37;30.30;63.50
52459;DHT22;38372;52.902;6.024;2022-08-23T13:22:19;30.30;62.60
52459;DHT22;38372;52.902;6.024;2022-08-23T13:25:09;30.40;62.70
52459;DHT22;38372;52.902;6.024;2022-08-23T13:27:50;30.50;62.50
52459;DHT22;38372;52.902;6.024;2022-08-23T13:32:46;30.30;62.30
52459;DHT22;38372;52.902;6.024;2022-08-23T13:35:36;30.00;62.60
52459;DHT22;38372;52.902;6.024;2022-08-23T13:43:13;29.50;67.40
52459;DHT22;38372;52.902;6.024;2022-08-23T13:45:46;29.50;67.70
52459;DHT22;38372;52.902;6.024;2022-08-23T13:48:18;29.60;68.70
52459;DHT22;38372;52.902;6.024;2022-08-23T13:50:45;29.60;68.60
52459;DHT22;38372;52.902;6.024;2022-08-23T13:53:12;29.50;67.80
52459;DHT22;38372;52.902;6.024;2022-08-23T13:55:41;29.20;70.20
52459;DHT22;38372;52.902;6.024;2022-08-23T13:58:13;29.20;69.80
52459;DHT22;38372;52.902;6.024;2022-08-23T14:00:41;29.30;68.90
52459;DHT22;38372;52.902;6.024;2022-08-23T14:03:07;29.30;70.00
52459;DHT22;38372;52.902;6.024;2022-08-23T14:05:33;29.30;70.60
52459;DHT22;38372;52.902;6.024;2022-08-23T14:07:59;29.30;68.80
52459;DHT22;38372;52.902;6.024;2022-08-23T14:10:25;29.30;68.70
52459;DHT22;38372;52.902;6.024;2022-08-23T14:12:52;29.40;69.30
52459;DHT22;38372;52.902;6.024;2022-08-23T14:15:19;29.40;68.80
52459;DHT22;38372;52.902;6.024;2022-08-23T14:17:51;29.30;70.50
52459;DHT22;38372;52.902;6.024;2022-08-23T14:20:19;29.20;72.60
52459;DHT22;38372;52.902;6.024;2022-08-23T14:22:45;29.10;70.30
52459;DHT22;38372;52.902;6.024;2022-08-23T14:25:11;29.20;69.30
52459;DHT22;38372;52.902;6.024;2022-08-23T14:27:39;29.20;69.00
52459;DHT22;38372;52.902;6.024;2022-08-23T14:30:07;29.10;70.60
52459;DHT22;38372;52.902;6.024;2022-08-23T14:32:33;28.90;70.70
52459;DHT22;38372;52.902;6.024;2022-08-23T14:34:59;28.70;71.90
52459;DHT22;38372;52.902;6.024;2022-08-23T14:37:25;28.50;72.80
52459;DHT22;38372;52.902;6.024;2022-08-23T14:39:51;28.50;72.70
52459;DHT22;38372;52.902;6.024;2022-08-23T14:42:20;28.60;73.50
52459;DHT22;38372;52.902;6.024;2022-08-23T14:44:46;28.70;73.80
52459;DHT22;38372;52.902;6.024;2022-08-23T14:47:12;28.60;71.30
52459;DHT22;38372;52.902;6.024;2022-08-23T14:49:38;28.60;70.90
52459;DHT22;38372;52.902;6.024;2022-08-23T14:52:04;28.40;71.00
52459;DHT22;38372;52.902;6.024;2022-08-23T14:54:31;28.30;72.40
52459;DHT22;38372;52.902;6.024;2022-08-23T14:56:57;28.20;73.20
52459;DHT22;38372;52.902;6.024;2022-08-23T14:59:23;28.00;75.50
52459;DHT22;38372;52.902;6.024;2022-08-23T15:01:51;27.90;76.80
52459;DHT22;38372;52.902;6.024;2022-08-23T15:04:21;27.80;74.90
52459;DHT22;38372;52.902;6.024;2022-08-23T15:06:48;27.70;76.30
52459;DHT22;38372;52.902;6.024;2022-08-23T15:09:15;27.70;76.30
52459;DHT22;38372;52.902;6.024;2022-08-23T15:11:41;27.70;75.20
52459;DHT22;38372;52.902;6.024;2022-08-23T15:14:07;27.80;77.40
52459;DHT22;38372;52.902;6.024;2022-08-23T15:16:33;27.80;78.80
52459;DHT22;38372;52.902;6.024;2022-08-23T15:18:59;27.80;76.40
52459;DHT22;38372;52.902;6.024;2022-08-23T15:21:25;27.70;76.50
52459;DHT22;38372;52.902;6.024;2022-08-23T15:23:51;27.70;77.00
52459;DHT22;38372;52.902;6.024;2022-08-23T15:26:24;27.70;78.60
52459;DHT22;38372;52.902;6.024;2022-08-23T15:28:51;27.70;78.70
52459;DHT22;38372;52.902;6.024;2022-08-23T15:31:18;27.70;77.60
52459;DHT22;38372;52.902;6.024;2022-08-23T15:33:44;27.80;75.30
52459;DHT22;38372;52.902;6.024;2022-08-23T15:36:11;27.80;76.90
52459;DHT22;38372;52.902;6.024;2022-08-23T15:38:39;27.90;77.20
52459;DHT22;38372;52.902;6.024;2022-08-23T15:41:05;27.90;73.00
52459;DHT22;38372;52.902;6.024;2022-08-23T15:43:31;27.90;73.60
52459;DHT22;38372;52.902;6.024;2022-08-23T15:46:03;27.90;74.00
52459;DHT22;38372;52.902;6.024;2022-08-23T15:48:34;27.90;77.30
52459;DHT22;38372;52.902;6.024;2022-08-23T15:51:03;27.80;78.90
52459;DHT22;38372;52.902;6.024;2022-08-23T15:53:29;27.80;78.90
52459;DHT22;38372;52.902;6.024;2022-08-23T15:55:55;27.80;79.20
52459;DHT22;38372;52.902;6.024;2022-08-23T15:58:23;27.80;78.30
52459;DHT22;38372;52.902;6.024;2022-08-23T16:00:51;27.70;78.60
52459;DHT22;38372;52.902;6.024;2022-08-23T16:03:19;27.70;77.70
52459;DHT22;38372;52.902;6.024;2022-08-23T16:05:47;27.60;78.70
52459;DHT22;38372;52.902;6.024;2022-08-23T16:08:26;27.60;77.10
52459;DHT22;38372;52.902;6.024;2022-08-23T16:10:53;27.50;78.60
52459;DHT22;38372;52.902;6.024;2022-08-23T16:13:20;27.40;77.20
52459;DHT22;38372;52.902;6.024;2022-08-23T16:15:46;27.30;78.50
52459;DHT22;38372;52.902;6.024;2022-08-23T16:18:13;27.30;78.30
52459;DHT22;38372;52.902;6.024;2022-08-23T16:20:40;27.30;77.60
52459;DHT22;38372;52.902;6.024;2022-08-23T16:23:06;27.20;77.30
52459;DHT22;38372;52.902;6.024;2022-08-23T16:25:31;27.10;77.90
52459;DHT22;38372;52.902;6.024;2022-08-23T16:27:58;27.00;78.10
52459;DHT22;38372;52.902;6.024;2022-08-23T16:30:24;26.90;80.20
52459;DHT22;38372;52.902;6.024;2022-08-23T16:32:50;26.90;82.10
52459;DHT22;38372;52.902;6.024;2022-08-23T16:35:16;26.90;82.30
52459;DHT22;38372;52.902;6.024;2022-08-23T16:37:42;26.80;83.50
52459;DHT22;38372;52.902;6.024;2022-08-23T16:40:09;26.80;84.70
52459;DHT22;38372;52.902;6.024;2022-08-23T16:42:35;26.80;84.70
52459;DHT22;38372;52.902;6.024;2022-08-23T16:45:01;26.70;85.40
52459;DHT22;38372;52.902;6.024;2022-08-23T16:47:28;26.60;86.70
52459;DHT22;38372;52.902;6.024;2022-08-23T16:49:55;26.60;87.70
52459;DHT22;38372;52.902;6.024;2022-08-23T16:52:21;26.70;88.10
52459;DHT22;38372;52.902;6.024;2022-08-23T16:54:47;26.60;89.50
52459;DHT22;38372;52.902;6.024;2022-08-23T16:57:12;26.60;89.60
52459;DHT22;38372;52.902;6.024;2022-08-23T16:59:42;26.50;90.10
52459;DHT22;38372;52.902;6.024;2022-08-23T17:02:32;26.50;90.40
52459;DHT22;38372;52.902;6.024;2022-08-23T17:04:59;26.40;90.60
52459;DHT22;38372;52.902;6.024;2022-08-23T17:07:25;26.30;90.80
52459;DHT22;38372;52.902;6.024;2022-08-23T17:09:51;26.20;90.60
52459;DHT22;38372;52.902;6.024;2022-08-23T17:12:17;26.20;90.80
52459;DHT22;38372;52.902;6.024;2022-08-23T17:14:45;26.00;91.10
52459;DHT22;38372;52.902;6.024;2022-08-23T17:17:13;25.90;91.00
52459;DHT22;38372;52.902;6.024;2022-08-23T17:19:39;25.80;91.40
52459;DHT22;38372;52.902;6.024;2022-08-23T17:22:05;25.70;91.90
52459;DHT22;38372;52.902;6.024;2022-08-23T17:24:31;25.60;92.10
52459;DHT22;38372;52.902;6.024;2022-08-23T17:26:58;25.50;92.40
52459;DHT22;38372;52.902;6.024;2022-08-23T17:29:24;25.50;92.70
52459;DHT22;38372;52.902;6.024;2022-08-23T17:31:49;25.40;93.10
52459;DHT22;38372;52.902;6.024;2022-08-23T17:34:15;25.40;93.60
52459;DHT22;38372;52.902;6.024;2022-08-23T17:36:52;25.30;94.30
52459;DHT22;38372;52.902;6.024;2022-08-23T17:39:22;25.20;94.80
52459;DHT22;38372;52.902;6.024;2022-08-23T17:41:49;25.20;95.80
52459;DHT22;38372;52.902;6.024;2022-08-23T17:44:15;25.10;96.20
52459;DHT22;38372;52.902;6.024;2022-08-23T17:46:43;25.10;96.50
52459;DHT22;38372;52.902;6.024;2022-08-23T17:49:10;25.00;97.00
52459;DHT22;38372;52.902;6.024;2022-08-23T17:51:37;24.90;97.50